sensor_id;sensor_type;location;lat;lon;timestamp;pressure;altitude;pressure_sealevel;temperature;humidity
70015;BME280;57358;51.094;6.760;2023-02-23T00:01:57;100800.50;;;8.83;100.00
70015;BME280;57358;51.094;6.760;2023-02-23T00:04:34;100747.00;;;8.49;100.00
70015;BME280;57358;51.094;6.760;2023-02-23T00:07:02;100780.94;;;8.71;100.00
70015;BME280;57358;51.094;6.760;2023-02-23T00:09:28;100808.34;;;8.83;100.00
70015;BME280;57358;51.094;6.760;2023-02-23T00:12:02;100788.72;;;8.73;100.00
70015;BME280;57358;51.094;6.760;2023-02-23T00:14:33;100610.94;;;7.69;100.00
70015;BME280;57358;51.094;6.760;2023-02-23T00:17:00;100755.91;;;8.45;100.00
70015;BME280;57358;51.094;6.760;2023-02-23T00:19:27;100766.69;;;8.58;100.00
70015;BME280;57358;51.094;6.760;2023-02-23T00:21:53;100798.09;;;8.78;100.00
70015;BME280;57358;51.094;6.760;2023-02-23T00:24:21;100830.38;;;8.77;100.00
70015;BME280;57358;51.094;6.760;2023-02-23T00:26:48;100662.06;;;7.96;100.00
70015;BME280;57358;51.094;6.760;2023-02-23T00:29:22;100796.31;;;8.79;100.00
70015;BME280;57358;51.094;6.760;2023-02-23T00:31:49;100797.16;;;8.79;100.00
70015;BME280;57358;51.094;6.760;2023-02-23T00:34:20;100732.53;;;8.41;100.00
70015;BME280;57358;51.094;6.760;2023-02-23T00:36:51;100789.19;;;8.83;100.00
70015;BME280;57358;51.094;6.760;2023-02-23T00:39:21;100794.34;;;8.84;100.00
70015;BME280;57358;51.094;6.760;2023-02-23T00:41:51;100791.59;;;8.87;100.00
70015;BME280;57358;51.094;6.760;2023-02-23T00:44:18;100804.03;;;8.82;100.00
70015;BME280;57358;51.094;6.760;2023-02-23T00:46:47;100714.28;;;8.39;100.00
70015;BME280;57358;51.094;6.760;2023-02-23T00:49:18;100797.03;;;8.83;100.00
70015;BME280;57358;51.094;6.760;2023-02-23T00:51:45;100793.63;;;8.81;100.00
70015;BME280;57358;51.094;6.760;2023-02-23T00:54:14;100779.25;;;8.70;100.00
70015;BME280;57358;51.094;6.760;2023-02-23T00:56:41;100732.66;;;8.37;100.00
70015;BME280;57358;51.094;6.760;2023-02-23T00:59:08;100790.34;;;8.75;100.00
70015;BME280;57358;51.094;6.760;2023-02-23T01:01:35;100747.22;;;8.45;100.00
70015;BME280;57358;51.094;6.760;2023-02-23T01:04:04;100782.31;;;8.80;100.00
70015;BME280;57358;51.094;6.760;2023-02-23T01:06:30;100804.94;;;8.81;100.00
70015;BME280;57358;51.094;6.760;2023-02-23T01:08:57;100738.31;;;8.49;100.00
70015;BME280;57358;51.094;6.760;2023-02-23T01:11:27;100765.72;;;8.61;100.00
70015;BME280;57358;51.094;6.760;2023-02-23T01:13:56;100768.00;;;8.68;100.00
70015;BME280;57358;51.094;6.760;2023-02-23T01:16:26;100766.28;;;8.67;100.00
70015;BME280;57358;51.094;6.760;2023-02-23T01:18:58;100741.59;;;8.54;100.00
70015;BME280;57358;51.094;6.760;2023-02-23T01:21:31;100699.91;;;8.29;100.00
70015;BME280;57358;51.094;6.760;2023-02-23T01:23:57;100751.59;;;8.65;100.00
70015;BME280;57358;51.094;6.760;2023-02-23T01:26:26;100718.22;;;8.49;100.00
70015;BME280;57358;51.094;6.760;2023-02-23T01:28:59;100791.13;;;8.98;100.00
70015;BME280;57358;51.094;6.760;2023-02-23T01:31:26;100781.44;;;9.00;100.00
70015;BME280;57358;51.094;6.760;2023-02-23T01:33:58;100766.91;;;8.93;100.00
70015;BME280;57358;51.094;6.760;2023-02-23T01:36:26;100771.94;;;8.97;100.00
70015;BME280;57358;51.094;6.760;2023-02-23T01:38:54;100720.97;;;8.67;100.00
70015;BME280;57358;51.094;6.760;2023-02-23T01:41:23;100793.00;;;9.15;100.00
70015;BME280;57358;51.094;6.760;2023-02-23T01:44:03;100785.97;;;9.15;100.00
70015;BME280;57358;51.094;6.760;2023-02-23T01:46:32;100547.16;;;7.74;100.00
70015;BME280;57358;51.094;6.760;2023-02-23T01:48:58;100786.91;;;9.14;100.00
70015;BME280;57358;51.094;6.760;2023-02-23T01:51:30;100786.13;;;9.12;100.00
70015;BME280;57358;51.094;6.760;2023-02-23T01:54:07;100787.97;;;9.10;100.00
70015;BME280;57358;51.094;6.760;2023-02-23T01:56:40;100803.69;;;9.10;100.00
70015;BME280;57358;51.094;6.760;2023-02-23T01:59:12;100601.75;;;8.01;100.00
70015;BME280;57358;51.094;6.760;2023-02-23T02:01:41;100643.50;;;8.23;100.00
70015;BME280;57358;51.094;6.760;2023-02-23T02:04:11;100725.28;;;8.68;100.00
70015;BME280;57358;51.094;6.760;2023-02-23T02:06:43;100782.06;;;9.05;100.00
70015;BME280;57358;51.094;6.760;2023-02-23T02:09:15;100780.47;;;9.03;100.00
70015;BME280;57358;51.094;6.760;2023-02-23T02:11:42;100782.28;;;9.01;100.00
70015;BME280;57358;51.094;6.760;2023-02-23T02:16:55;100686.28;;;8.43;100.00
70015;BME280;57358;51.094;6.760;2023-02-23T02:22:08;100772.38;;;8.88;100.00
70015;BME280;57358;51.094;6.760;2023-02-23T02:27:44;100763.13;;;8.79;100.00
70015;BME280;57358;51.094;6.760;2023-02-23T02:38:49;100787.34;;;8.85;100.00
70015;BME280;57358;51.094;6.760;2023-02-23T02:41:27;100718.22;;;8.29;100.00
70015;BME280;57358;51.094;6.760;2023-02-23T02:44:12;100697.13;;;8.11;100.00
70015;BME280;57358;51.094;6.760;2023-02-23T02:46:45;100780.75;;;8.76;100.00
70015;BME280;57358;51.094;6.760;2023-02-23T02:49:14;100784.84;;;8.82;100.00
70015;BME280;57358;51.094;6.760;2023-02-23T02:51:47;100693.16;;;8.23;100.00
70015;BME280;57358;51.094;6.760;2023-02-23T02:54:25;100671.09;;;8.10;100.00
70015;BME280;57358;51.094;6.760;2023-02-23T02:56:56;100691.59;;;8.19;100.00
70015;BME280;57358;51.094;6.760;2023-02-23T02:59:25;100771.53;;;8.67;100.00
70015;BME280;57358;51.094;6.760;2023-02-23T03:02:21;100798.78;;;8.62;100.00
70015;BME280;57358;51.094;6.760;2023-02-23T03:05:12;100777.88;;;8.39;100.00
70015;BME280;57358;51.094;6.760;2023-02-23T03:11:08;100779.91;;;8.33;100.00
70015;BME280;57358;51.094;6.760;2023-02-23T03:14:21;100751.09;;;8.34;100.00
70015;BME280;57358;51.094;6.760;2023-02-23T03:17:32;100754.75;;;8.30;100.00
70015;BME280;57358;51.094;6.760;2023-02-23T03:26:22;100781.00;;;8.70;100.00
70015;BME280;57358;51.094;6.760;2023-02-23T03:29:30;100787.94;;;8.71;100.00
70015;BME280;57358;51.094;6.760;2023-02-23T03:38:18;100725.06;;;8.31;100.00
70015;BME280;57358;51.094;6.760;2023-02-23T03:41:07;100714.81;;;8.27;100.00
70015;BME280;57358;51.094;6.760;2023-02-23T03:44:03;100753.63;;;8.58;100.00
70015;BME280;57358;51.094;6.760;2023-02-23T03:46:50;100739.47;;;8.42;100.00
70015;BME280;57358;51.094;6.760;2023-02-23T03:49:37;100684.81;;;8.15;100.00
70015;BME280;57358;51.094;6.760;2023-02-23T03:52:30;100787.69;;;8.77;100.00
70015;BME280;57358;51.094;6.760;2023-02-23T03:55:22;100786.19;;;8.51;100.00
70015;BME280;57358;51.094;6.760;2023-02-23T03:58:13;100790.81;;;8.65;100.00
70015;BME280;57358;51.094;6.760;2023-02-23T04:01:02;100712.03;;;8.09;100.00
70015;BME280;57358;51.094;6.760;2023-02-23T04:03:48;100795.38;;;8.59;100.00
70015;BME280;57358;51.094;6.760;2023-02-23T04:06:39;100701.06;;;8.01;100.00
70015;BME280;57358;51.094;6.760;2023-02-23T04:09:24;100794.16;;;8.68;100.00
70015;BME280;57358;51.094;6.760;2023-02-23T04:15:19;100806.19;;;8.72;100.00
70015;BME280;57358;51.094;6.760;2023-02-23T04:17:51;100683.88;;;7.95;100.00
70015;BME280;57358;51.094;6.760;2023-02-23T04:20:19;100807.50;;;8.83;100.00
70015;BME280;57358;51.094;6.760;2023-02-23T04:22:45;100743.00;;;8.41;100.00
70015;BME280;57358;51.094;6.760;2023-02-23T04:25:13;100810.97;;;8.83;100.00
70015;BME280;57358;51.094;6.760;2023-02-23T04:27:42;100782.38;;;8.78;100.00
70015;BME280;57358;51.094;6.760;2023-02-23T04:30:09;100751.91;;;8.57;100.00
70015;BME280;57358;51.094;6.760;2023-02-23T04:32:36;100765.44;;;8.67;100.00
70015;BME280;57358;51.094;6.760;2023-02-23T04:35:03;100775.38;;;8.79;100.00
70015;BME280;57358;51.094;6.760;2023-02-23T04:37:30;100739.94;;;8.51;100.00
70015;BME280;57358;51.094;6.760;2023-02-23T04:39:56;100784.84;;;8.82;100.00
70015;BME280;57358;51.094;6.760;2023-02-23T04:42:23;100666.66;;;8.12;100.00
70015;BME280;57358;51.094;6.760;2023-02-23T04:44:49;100775.69;;;8.71;100.00
70015;BME280;57358;51.094;6.760;2023-02-23T04:47:16;100586.88;;;7.62;100.00
70015;BME280;57358;51.094;6.760;2023-02-23T04:49:43;100810.91;;;8.85;100.00
70015;BME280;57358;51.094;6.760;2023-02-23T04:52:09;100704.34;;;8.27;100.00
70015;BME280;57358;51.094;6.760;2023-02-23T04:54:39;100804.88;;;8.83;100.00
70015;BME280;57358;51.094;6.760;2023-02-23T04:57:06;100577.81;;;7.49;100.00
70015;BME280;57358;51.094;6.760;2023-02-23T04:59:33;100796.25;;;8.81;100.00
70015;BME280;57358;51.094;6.760;2023-02-23T05:01:59;100725.72;;;8.36;100.00
70015;BME280;57358;51.094;6.760;2023-02-23T05:04:26;100757.78;;;8.42;100.00
70015;BME280;57358;51.094;6.760;2023-02-23T05:06:52;100757.59;;;8.46;100.00
70015;BME280;57358;51.094;6.760;2023-02-23T05:09:19;100777.34;;;8.53;100.00
70015;BME280;57358;51.094;6.760;2023-02-23T05:11:45;100505.13;;;6.75;100.00
70015;BME280;57358;51.094;6.760;2023-02-23T05:14:12;100813.13;;;8.53;100.00
70015;BME280;57358;51.094;6.760;2023-02-23T05:16:38;100720.13;;;8.03;100.00
70015;BME280;57358;51.094;6.760;2023-02-23T05:19:05;100814.94;;;8.51;100.00
70015;BME280;57358;51.094;6.760;2023-02-23T05:21:31;100752.25;;;8.27;100.00
70015;BME280;57358;51.094;6.760;2023-02-23T05:23:57;100782.78;;;8.49;100.00
70015;BME280;57358;51.094;6.760;2023-02-23T05:26:24;100699.00;;;7.87;100.00
70015;BME280;57358;51.094;6.760;2023-02-23T05:28:50;100794.94;;;8.28;100.00
70015;BME280;57358;51.094;6.760;2023-02-23T05:31:17;100830.72;;;8.70;100.00
70015;BME280;57358;51.094;6.760;2023-02-23T05:33:44;100828.81;;;8.53;100.00
70015;BME280;57358;51.094;6.760;2023-02-23T05:36:13;100827.75;;;8.57;100.00
70015;BME280;57358;51.094;6.760;2023-02-23T05:38:41;100781.94;;;8.26;100.00
70015;BME280;57358;51.094;6.760;2023-02-23T05:41:10;100762.22;;;8.17;100.00
70015;BME280;57358;51.094;6.760;2023-02-23T05:43:37;100823.16;;;8.42;100.00
70015;BME280;57358;51.094;6.760;2023-02-23T05:46:24;100836.53;;;8.56;100.00
70015;BME280;57358;51.094;6.760;2023-02-23T05:48:56;100815.84;;;8.50;100.00
70015;BME280;57358;51.094;6.760;2023-02-23T05:51:24;100839.94;;;8.58;100.00
70015;BME280;57358;51.094;6.760;2023-02-23T05:53:50;100840.84;;;8.57;100.00
70015;BME280;57358;51.094;6.760;2023-02-23T05:56:17;100829.47;;;8.58;100.00
70015;BME280;57358;51.094;6.760;2023-02-23T05:58:50;100840.53;;;8.65;100.00
70015;BME280;57358;51.094;6.760;2023-02-23T06:01:18;100805.63;;;8.44;100.00
70015;BME280;57358;51.094;6.760;2023-02-23T06:03:46;100842.88;;;8.71;100.00
70015;BME280;57358;51.094;6.760;2023-02-23T06:06:13;100840.06;;;8.75;100.00
70015;BME280;57358;51.094;6.760;2023-02-23T06:08:40;100782.59;;;8.31;100.00
70015;BME280;57358;51.094;6.760;2023-02-23T06:11:06;100777.91;;;8.17;100.00
70015;BME280;57358;51.094;6.760;2023-02-23T06:13:33;100760.59;;;8.15;100.00
70015;BME280;57358;51.094;6.760;2023-02-23T06:15:59;100816.97;;;8.44;100.00
70015;BME280;57358;51.094;6.760;2023-02-23T06:18:26;100847.53;;;8.64;100.00
70015;BME280;57358;51.094;6.760;2023-02-23T06:20:53;100852.41;;;8.72;100.00
70015;BME280;57358;51.094;6.760;2023-02-23T06:23:20;100846.22;;;8.74;100.00
70015;BME280;57358;51.094;6.760;2023-02-23T06:25:46;100807.06;;;8.30;100.00
70015;BME280;57358;51.094;6.760;2023-02-23T06:28:13;100831.78;;;8.44;100.00
70015;BME280;57358;51.094;6.760;2023-02-23T06:30:40;100821.09;;;8.06;100.00
70015;BME280;57358;51.094;6.760;2023-02-23T06:33:07;100801.16;;;7.81;100.00
70015;BME280;57358;51.094;6.760;2023-02-23T06:35:34;100859.59;;;8.24;100.00
70015;BME280;57358;51.094;6.760;2023-02-23T06:38:01;100691.38;;;7.38;100.00
70015;BME280;57358;51.094;6.760;2023-02-23T06:40:27;100786.19;;;7.63;100.00
70015;BME280;57358;51.094;6.760;2023-02-23T06:42:54;100857.38;;;8.13;100.00
70015;BME280;57358;51.094;6.760;2023-02-23T06:45:20;100868.81;;;8.33;100.00
70015;BME280;57358;51.094;6.760;2023-02-23T06:47:47;100872.84;;;8.42;100.00
70015;BME280;57358;51.094;6.760;2023-02-23T06:50:14;100872.28;;;8.55;100.00
70015;BME280;57358;51.094;6.760;2023-02-23T06:52:41;100810.97;;;8.20;100.00
70015;BME280;57358;51.094;6.760;2023-02-23T06:55:08;100891.16;;;8.42;100.00
70015;BME280;57358;51.094;6.760;2023-02-23T06:57:34;100883.22;;;8.21;100.00
70015;BME280;57358;51.094;6.760;2023-02-23T07:00:01;100884.63;;;8.30;100.00
70015;BME280;57358;51.094;6.760;2023-02-23T07:02:28;100884.69;;;8.28;100.00
70015;BME280;57358;51.094;6.760;2023-02-23T07:04:55;100896.75;;;8.32;100.00
70015;BME280;57358;51.094;6.760;2023-02-23T07:07:21;100846.13;;;8.11;100.00
70015;BME280;57358;51.094;6.760;2023-02-23T07:09:47;100786.47;;;7.78;100.00
70015;BME280;57358;51.094;6.760;2023-02-23T07:12:14;100814.16;;;7.83;100.00
70015;BME280;57358;51.094;6.760;2023-02-23T07:14:40;100899.41;;;8.31;100.00
70015;BME280;57358;51.094;6.760;2023-02-23T07:17:07;100827.84;;;7.89;100.00
70015;BME280;57358;51.094;6.760;2023-02-23T07:19:33;100905.19;;;8.61;100.00
70015;BME280;57358;51.094;6.760;2023-02-23T07:22:00;100911.03;;;8.68;100.00
70015;BME280;57358;51.094;6.760;2023-02-23T07:24:26;100908.34;;;8.69;100.00
70015;BME280;57358;51.094;6.760;2023-02-23T07:26:56;100914.38;;;8.71;100.00
70015;BME280;57358;51.094;6.760;2023-02-23T07:29:23;100845.53;;;8.27;100.00
70015;BME280;57358;51.094;6.760;2023-02-23T07:31:49;100920.06;;;8.61;100.00
70015;BME280;57358;51.094;6.760;2023-02-23T07:34:16;100832.97;;;8.14;100.00
70015;BME280;57358;51.094;6.760;2023-02-23T07:36:42;100911.47;;;8.57;100.00
70015;BME280;57358;51.094;6.760;2023-02-23T07:39:09;100923.94;;;8.72;100.00
70015;BME280;57358;51.094;6.760;2023-02-23T07:41:35;100853.94;;;8.13;100.00
70015;BME280;57358;51.094;6.760;2023-02-23T07:44:02;100846.81;;;8.16;100.00
70015;BME280;57358;51.094;6.760;2023-02-23T07:46:28;100884.41;;;8.36;100.00
70015;BME280;57358;51.094;6.760;2023-02-23T07:48:55;100795.53;;;7.92;100.00
70015;BME280;57358;51.094;6.760;2023-02-23T07:51:21;100806.19;;;7.86;100.00
70015;BME280;57358;51.094;6.760;2023-02-23T07:53:48;100882.69;;;8.35;100.00
70015;BME280;57358;51.094;6.760;2023-02-23T07:56:14;100788.22;;;7.78;100.00
70015;BME280;57358;51.094;6.760;2023-02-23T07:58:43;100926.03;;;8.64;100.00
70015;BME280;57358;51.094;6.760;2023-02-23T08:01:10;100937.88;;;8.51;100.00
70015;BME280;57358;51.094;6.760;2023-02-23T08:03:38;100784.66;;;7.57;100.00
70015;BME280;57358;51.094;6.760;2023-02-23T08:06:05;100756.03;;;7.32;100.00
70015;BME280;57358;51.094;6.760;2023-02-23T08:08:31;100838.41;;;7.86;100.00
70015;BME280;57358;51.094;6.760;2023-02-23T08:11:00;100937.97;;;8.48;100.00
70015;BME280;57358;51.094;6.760;2023-02-23T08:13:27;100937.78;;;8.54;100.00
70015;BME280;57358;51.094;6.760;2023-02-23T08:15:55;100953.09;;;8.63;100.00
70015;BME280;57358;51.094;6.760;2023-02-23T08:18:22;100976.13;;;8.75;100.00
70015;BME280;57358;51.094;6.760;2023-02-23T08:20:48;100661.66;;;6.97;100.00
70015;BME280;57358;51.094;6.760;2023-02-23T08:23:15;100835.31;;;7.98;100.00
70015;BME280;57358;51.094;6.760;2023-02-23T08:25:44;100871.31;;;8.14;100.00
70015;BME280;57358;51.094;6.760;2023-02-23T08:28:11;100961.41;;;8.73;100.00
70015;BME280;57358;51.094;6.760;2023-02-23T08:30:37;100955.16;;;8.77;100.00
70015;BME280;57358;51.094;6.760;2023-02-23T08:33:05;100938.84;;;8.70;100.00
70015;BME280;57358;51.094;6.760;2023-02-23T08:35:33;100893.94;;;8.59;100.00
70015;BME280;57358;51.094;6.760;2023-02-23T08:37:59;100950.47;;;9.06;100.00
70015;BME280;57358;51.094;6.760;2023-02-23T08:40:26;100858.81;;;8.22;100.00
70015;BME280;57358;51.094;6.760;2023-02-23T08:42:52;100960.50;;;8.74;100.00
70015;BME280;57358;51.094;6.760;2023-02-23T08:45:19;100909.63;;;8.37;100.00
70015;BME280;57358;51.094;6.760;2023-02-23T08:47:45;100920.31;;;8.31;100.00
70015;BME280;57358;51.094;6.760;2023-02-23T08:50:12;100984.38;;;8.66;100.00
70015;BME280;57358;51.094;6.760;2023-02-23T08:52:39;100981.56;;;8.71;100.00
70015;BME280;57358;51.094;6.760;2023-02-23T08:55:06;100928.13;;;8.32;100.00
70015;BME280;57358;51.094;6.760;2023-02-23T08:57:34;100975.78;;;8.63;100.00
70015;BME280;57358;51.094;6.760;2023-02-23T09:00:01;100922.63;;;8.16;100.00
70015;BME280;57358;51.094;6.760;2023-02-23T09:02:28;100982.53;;;8.68;100.00
70015;BME280;57358;51.094;6.760;2023-02-23T09:04:54;100879.31;;;8.09;100.00
70015;BME280;57358;51.094;6.760;2023-02-23T09:07:21;100987.63;;;8.71;100.00
70015;BME280;57358;51.094;6.760;2023-02-23T09:09:57;100972.31;;;8.62;100.00
70015;BME280;57358;51.094;6.760;2023-02-23T09:12:24;100997.56;;;8.85;100.00
70015;BME280;57358;51.094;6.760;2023-02-23T09:14:50;100989.72;;;8.85;100.00
70015;BME280;57358;51.094;6.760;2023-02-23T09:17:20;100993.88;;;9.11;100.00
70015;BME280;57358;51.094;6.760;2023-02-23T09:19:49;101004.34;;;9.11;100.00
70015;BME280;57358;51.094;6.760;2023-02-23T09:22:15;100931.72;;;8.74;100.00
70015;BME280;57358;51.094;6.760;2023-02-23T09:24:43;100917.94;;;8.91;100.00
70015;BME280;57358;51.094;6.760;2023-02-23T09:27:10;100981.16;;;9.24;100.00
70015;BME280;57358;51.094;6.760;2023-02-23T09:29:40;100913.50;;;8.93;100.00
70015;BME280;57358;51.094;6.760;2023-02-23T09:32:10;100987.22;;;9.66;100.00
70015;BME280;57358;51.094;6.760;2023-02-23T09:34:37;100987.78;;;9.52;100.00
70015;BME280;57358;51.094;6.760;2023-02-23T09:37:04;100894.06;;;8.98;100.00
70015;BME280;57358;51.094;6.760;2023-02-23T09:39:31;100892.19;;;9.02;100.00
70015;BME280;57358;51.094;6.760;2023-02-23T09:45:17;101000.16;;;9.28;100.00
70015;BME280;57358;51.094;6.760;2023-02-23T09:50:36;100929.72;;;8.81;100.00
70015;BME280;57358;51.094;6.760;2023-02-23T09:53:14;101009.06;;;9.03;100.00
70015;BME280;57358;51.094;6.760;2023-02-23T09:55:46;100954.47;;;8.50;100.00
70015;BME280;57358;51.094;6.760;2023-02-23T09:58:22;101028.22;;;9.04;100.00
70015;BME280;57358;51.094;6.760;2023-02-23T10:03:33;100985.47;;;8.61;100.00
70015;BME280;57358;51.094;6.760;2023-02-23T10:06:06;100948.34;;;8.27;100.00
70015;BME280;57358;51.094;6.760;2023-02-23T10:11:26;101047.22;;;8.87;100.00
70015;BME280;57358;51.094;6.760;2023-02-23T10:17:14;100997.63;;;8.84;100.00
70015;BME280;57358;51.094;6.760;2023-02-23T10:19:54;100987.63;;;8.71;100.00
70015;BME280;57358;51.094;6.760;2023-02-23T10:22:24;100947.97;;;8.38;100.00
70015;BME280;57358;51.094;6.760;2023-02-23T10:24:57;100963.66;;;8.38;100.00
70015;BME280;57358;51.094;6.760;2023-02-23T10:27:31;101044.00;;;9.02;100.00
70015;BME280;57358;51.094;6.760;2023-02-23T10:30:15;100940.31;;;8.10;100.00
70015;BME280;57358;51.094;6.760;2023-02-23T10:32:49;100959.84;;;8.47;100.00
70015;BME280;57358;51.094;6.760;2023-02-23T10:35:20;100874.53;;;7.75;100.00
70015;BME280;57358;51.094;6.760;2023-02-23T10:37:48;101037.56;;;8.89;100.00
70015;BME280;57358;51.094;6.760;2023-02-23T10:40:19;101059.09;;;8.95;100.00
70015;BME280;57358;51.094;6.760;2023-02-23T10:42:51;101040.59;;;8.56;100.00
70015;BME280;57358;51.094;6.760;2023-02-23T10:45:20;101002.88;;;8.38;100.00
70015;BME280;57358;51.094;6.760;2023-02-23T10:47:59;101068.34;;;8.82;100.00
70015;BME280;57358;51.094;6.760;2023-02-23T10:50:28;101061.13;;;8.65;100.00
70015;BME280;57358;51.094;6.760;2023-02-23T10:52:59;101043.97;;;8.34;100.00
70015;BME280;57358;51.094;6.760;2023-02-23T10:55:30;101071.88;;;8.57;100.00
70015;BME280;57358;51.094;6.760;2023-02-23T10:58:11;101062.13;;;8.63;100.00
70015;BME280;57358;51.094;6.760;2023-02-23T11:00:51;101078.38;;;8.71;100.00
70015;BME280;57358;51.094;6.760;2023-02-23T11:03:24;101046.34;;;8.42;100.00
70015;BME280;57358;51.094;6.760;2023-02-23T11:05:53;101066.28;;;8.45;100.00
70015;BME280;57358;51.094;6.760;2023-02-23T11:08:30;101064.66;;;8.41;100.00
70015;BME280;57358;51.094;6.760;2023-02-23T11:13:49;101013.28;;;8.16;100.00
70015;BME280;57358;51.094;6.760;2023-02-23T11:16:23;101004.47;;;8.18;100.00
70015;BME280;57358;51.094;6.760;2023-02-23T11:19:01;101069.59;;;8.72;100.00
70015;BME280;57358;51.094;6.760;2023-02-23T11:21:33;101066.03;;;8.74;100.00
70015;BME280;57358;51.094;6.760;2023-02-23T11:24:12;101074.69;;;8.76;100.00
70015;BME280;57358;51.094;6.760;2023-02-23T11:26:45;100982.63;;;8.43;100.00
70015;BME280;57358;51.094;6.760;2023-02-23T11:29:37;100958.16;;;8.22;100.00
70015;BME280;57358;51.094;6.760;2023-02-23T11:32:08;101039.94;;;8.49;100.00
70015;BME280;57358;51.094;6.760;2023-02-23T11:34:36;101016.59;;;8.45;100.00
70015;BME280;57358;51.094;6.760;2023-02-23T11:39:55;101040.53;;;8.79;100.00
70015;BME280;57358;51.094;6.760;2023-02-23T11:42:27;100999.81;;;8.72;100.00
70015;BME280;57358;51.094;6.760;2023-02-23T11:45:16;101035.53;;;8.73;100.00
70015;BME280;57358;51.094;6.760;2023-02-23T11:47:51;101050.63;;;8.89;100.00
70015;BME280;57358;51.094;6.760;2023-02-23T11:50:32;100997.13;;;8.52;100.00
70015;BME280;57358;51.094;6.760;2023-02-23T11:55:31;101044.84;;;8.81;100.00
70015;BME280;57358;51.094;6.760;2023-02-23T11:58:22;100953.94;;;8.18;100.00
70015;BME280;57358;51.094;6.760;2023-02-23T12:00:58;101049.53;;;8.72;100.00
70015;BME280;57358;51.094;6.760;2023-02-23T12:03:29;101045.41;;;8.67;100.00
70015;BME280;57358;51.094;6.760;2023-02-23T12:05:57;100963.69;;;8.36;100.00
70015;BME280;57358;51.094;6.760;2023-02-23T12:08:48;100971.94;;;8.49;100.00
70015;BME280;57358;51.094;6.760;2023-02-23T12:11:22;101051.63;;;9.08;100.00
70015;BME280;57358;51.094;6.760;2023-02-23T12:13:57;101033.66;;;8.99;100.00
70015;BME280;57358;51.094;6.760;2023-02-23T12:16:47;101038.78;;;8.80;100.00
70015;BME280;57358;51.094;6.760;2023-02-23T12:19:43;101043.56;;;8.91;100.00
70015;BME280;57358;51.094;6.760;2023-02-23T12:22:18;101020.22;;;8.64;100.00
70015;BME280;57358;51.094;6.760;2023-02-23T12:24:58;100832.31;;;7.40;100.00
70015;BME280;57358;51.094;6.760;2023-02-23T12:28:03;101036.00;;;8.37;100.00
70015;BME280;57358;51.094;6.760;2023-02-23T12:30:56;100979.38;;;7.89;100.00
70015;BME280;57358;51.094;6.760;2023-02-23T12:33:32;100942.78;;;7.66;100.00
70015;BME280;57358;51.094;6.760;2023-02-23T12:36:03;101052.59;;;8.13;100.00
70015;BME280;57358;51.094;6.760;2023-02-23T12:41:11;101057.53;;;7.97;100.00
70015;BME280;57358;51.094;6.760;2023-02-23T12:43:43;101036.44;;;7.78;100.00
70015;BME280;57358;51.094;6.760;2023-02-23T12:46:27;101003.09;;;7.59;100.00
70015;BME280;57358;51.094;6.760;2023-02-23T12:49:05;101079.00;;;8.05;100.00
70015;BME280;57358;51.094;6.760;2023-02-23T12:51:48;100917.72;;;7.11;100.00
70015;BME280;57358;51.094;6.760;2023-02-23T12:54:17;101028.09;;;7.92;100.00
70015;BME280;57358;51.094;6.760;2023-02-23T13:02:21;101051.34;;;8.48;100.00
70015;BME280;57358;51.094;6.760;2023-02-23T13:11:22;101038.94;;;8.75;100.00
70015;BME280;57358;51.094;6.760;2023-02-23T13:14:12;101047.16;;;8.66;100.00
70015;BME280;57358;51.094;6.760;2023-02-23T13:16:43;100811.28;;;7.19;100.00
70015;BME280;57358;51.094;6.760;2023-02-23T13:19:29;101047.00;;;8.47;100.00
70015;BME280;57358;51.094;6.760;2023-02-23T13:24:41;101063.91;;;8.37;100.00
70015;BME280;57358;51.094;6.760;2023-02-23T13:27:14;101046.34;;;8.41;100.00
70015;BME280;57358;51.094;6.760;2023-02-23T13:32:18;101043.63;;;8.44;100.00
70015;BME280;57358;51.094;6.760;2023-02-23T13:34:53;101056.81;;;8.41;100.00
70015;BME280;57358;51.094;6.760;2023-02-23T13:37:25;101046.47;;;8.61;100.00
70015;BME280;57358;51.094;6.760;2023-02-23T13:46:02;101017.09;;;8.98;100.00
70015;BME280;57358;51.094;6.760;2023-02-23T13:51:36;101037.78;;;9.47;100.00
70015;BME280;57358;51.094;6.760;2023-02-23T13:56:46;101027.44;;;9.65;100.00
70015;BME280;57358;51.094;6.760;2023-02-23T13:59:22;100811.84;;;8.41;100.00
70015;BME280;57358;51.094;6.760;2023-02-23T14:01:51;101025.72;;;9.84;100.00
70015;BME280;57358;51.094;6.760;2023-02-23T14:04:35;100995.94;;;9.66;100.00
70015;BME280;57358;51.094;6.760;2023-02-23T14:09:37;101028.22;;;9.87;100.00
70015;BME280;57358;51.094;6.760;2023-02-23T14:22:26;100956.66;;;8.38;100.00
70015;BME280;57358;51.094;6.760;2023-02-23T14:28:03;100995.25;;;8.55;100.00
70015;BME280;57358;51.094;6.760;2023-02-23T14:41:28;101037.72;;;8.62;100.00
70015;BME280;57358;51.094;6.760;2023-02-23T14:43:59;101044.69;;;8.62;100.00
70015;BME280;57358;51.094;6.760;2023-02-23T14:46:30;101043.38;;;8.73;100.00
70015;BME280;57358;51.094;6.760;2023-02-23T14:51:37;101048.06;;;8.87;100.00
70015;BME280;57358;51.094;6.760;2023-02-23T14:54:30;101041.41;;;8.80;100.00
70015;BME280;57358;51.094;6.760;2023-02-23T14:56:59;101035.41;;;8.76;100.00
70015;BME280;57358;51.094;6.760;2023-02-23T14:59:29;101052.16;;;8.94;100.00
70015;BME280;57358;51.094;6.760;2023-02-23T15:02:07;101072.03;;;9.00;100.00
70015;BME280;57358;51.094;6.760;2023-02-23T15:04:34;101044.84;;;9.03;100.00
70015;BME280;57358;51.094;6.760;2023-02-23T15:07:04;100956.88;;;8.56;100.00
70015;BME280;57358;51.094;6.760;2023-02-23T15:09:41;100998.94;;;8.72;100.00
70015;BME280;57358;51.094;6.760;2023-02-23T15:12:29;101044.47;;;8.90;100.00
70015;BME280;57358;51.094;6.760;2023-02-23T15:15:01;101055.88;;;8.89;100.00